createdAt,value
2022-09-05T00:02:02.415Z,60.87
2022-09-05T00:05:06.998Z,60.92
2022-09-05T00:08:08.322Z,60.80
2022-09-05T00:11:42.766Z,60.69
2022-09-05T00:15:14.673Z,60.54
2022-09-05T00:21:10.453Z,60.85
2022-09-05T00:24:37.609Z,60.71
2022-09-05T00:25:31.345Z,62.02
2022-09-05T00:28:42.510Z,61.50
2022-09-05T00:31:54.561Z,61.02
2022-09-05T00:35:08.722Z,61.29
2022-09-05T00:37:54.967Z,61.36
2022-09-05T00:41:02.453Z,61.19
2022-09-05T00:43:50.059Z,60.91
2022-09-05T00:46:39.105Z,61.08
2022-09-05T00:49:28.133Z,60.96
2022-09-05T00:52:37.117Z,62.00
2022-09-05T00:55:44.960Z,61.19
2022-09-05T00:58:56.470Z,61.49
2022-09-05T01:01:59.138Z,61.40
2022-09-05T01:05:24.686Z,61.22
2022-09-05T01:08:39.602Z,61.24
2022-09-05T01:11:57.998Z,61.38
2022-09-05T01:15:17.882Z,61.34
2022-09-05T01:18:19.553Z,61.40
2022-09-05T01:21:36.402Z,61.44
2022-09-05T01:24:42.841Z,61.32
2022-09-05T01:29:16.145Z,61.48
2022-09-05T01:32:06.213Z,61.45
2022-09-05T01:34:55.580Z,61.47
2022-09-05T01:37:49.202Z,61.46
2022-09-05T01:40:41.551Z,61.51
2022-09-05T01:43:52.383Z,61.48
2022-09-05T01:46:50.665Z,61.36
2022-09-05T01:50:01.128Z,61.52
2022-09-05T01:53:07.136Z,61.59
2022-09-05T01:56:30.464Z,61.58
2022-09-05T01:59:19.814Z,61.81
2022-09-05T02:02:13.750Z,61.38
2022-09-05T02:05:12.514Z,61.35
2022-09-05T02:08:36.259Z,61.50
2022-09-05T02:11:42.087Z,61.67
2022-09-05T02:15:01.048Z,61.51
2022-09-05T02:17:54.349Z,61.71
2022-09-05T02:20:54.856Z,62.21
2022-09-05T02:23:49.128Z,62.27
2022-09-05T02:26:57.617Z,63.26
2022-09-05T02:30:10.173Z,62.85
2022-09-05T02:32:56.369Z,62.84
2022-09-05T02:35:54.272Z,62.00
2022-09-05T02:45:02.888Z,61.92
2022-09-05T02:45:15.181Z,62.30
2022-09-05T02:45:58.882Z,61.99
2022-09-05T02:48:57.829Z,61.99
2022-09-05T02:57:24.635Z,62.03
2022-09-05T02:57:41.149Z,62.16
2022-09-05T02:59:09.541Z,62.09
2022-09-05T03:02:27.006Z,61.86
2022-09-05T03:05:31.314Z,61.77
2022-09-05T03:08:42.204Z,61.82
2022-09-05T03:11:37.674Z,61.69
2022-09-05T03:14:48.356Z,61.96
2022-09-05T03:17:40.273Z,61.75
2022-09-05T03:20:51.453Z,61.74
2022-09-05T03:23:46.628Z,61.93
2022-09-05T03:26:38.385Z,61.81
2022-09-05T03:29:31.328Z,61.70
2022-09-05T03:32:43.047Z,61.90
2022-09-05T03:36:08.925Z,61.94
2022-09-05T03:39:36.888Z,62.00
2022-09-05T03:42:55.788Z,61.73
2022-09-05T03:46:06.979Z,62.03
2022-09-05T03:49:58.070Z,62.29
2022-09-05T03:57:11.772Z,61.80
2022-09-05T03:57:18.175Z,62.08
2022-09-05T03:58:57.966Z,61.85
2022-09-05T04:05:01.002Z,62.03
2022-09-05T04:08:19.740Z,61.99
2022-09-05T04:08:41.926Z,61.82
2022-09-05T04:11:53.736Z,62.03
2022-09-05T04:14:54.960Z,61.93
2022-09-05T04:17:41.082Z,62.11
2022-09-05T04:20:55.186Z,62.06
2022-09-05T04:23:49.909Z,61.99
2022-09-05T04:26:44.968Z,62.02
2022-09-05T04:29:37.018Z,62.01
2022-09-05T04:32:41.585Z,62.05
2022-09-05T04:35:53.935Z,61.95
2022-09-05T04:38:44.044Z,62.16
2022-09-05T04:41:39.609Z,62.11
2022-09-05T04:44:30.044Z,62.22
2022-09-05T04:47:29.242Z,62.73
2022-09-05T04:50:18.704Z,62.30
2022-09-05T04:53:21.988Z,62.42
2022-09-05T04:56:13.960Z,62.31
2022-09-05T05:02:31.473Z,62.36
2022-09-05T05:06:15.110Z,62.41
2022-09-05T05:06:20.302Z,62.37
2022-09-05T05:09:34.874Z,62.61
2022-09-05T05:18:03.805Z,62.40
2022-09-05T05:18:11.488Z,62.30
2022-09-05T05:19:03.622Z,62.38
2022-09-05T05:21:57.360Z,62.53
2022-09-05T05:24:46.582Z,63.40
2022-09-05T05:27:42.104Z,63.40
2022-09-05T05:30:32.501Z,62.64
2022-09-05T05:33:30.241Z,62.96
2022-09-05T05:36:28.495Z,62.83
2022-09-05T05:39:21.298Z,62.90
2022-09-05T05:42:20.531Z,62.99
2022-09-05T05:45:17.223Z,63.20
2022-09-05T05:48:21.856Z,62.95
2022-09-05T05:52:01.724Z,63.04
2022-09-05T05:55:28.511Z,63.27
2022-09-05T05:58:41.508Z,63.16
2022-09-05T06:01:38.450Z,63.18
2022-09-05T06:04:49.577Z,63.37
2022-09-05T06:08:10.227Z,63.10
2022-09-05T06:15:00.723Z,63.24
2022-09-05T06:15:08.880Z,63.36
2022-09-05T06:18:24.370Z,63.47
2022-09-05T06:22:07.252Z,62.93
2022-09-05T06:24:47.440Z,63.05
2022-09-05T06:28:05.569Z,63.16
2022-09-05T06:31:30.798Z,63.17
2022-09-05T06:34:46.948Z,62.93
2022-09-05T06:38:11.821Z,63.23
2022-09-05T06:41:20.446Z,63.05
2022-09-05T06:44:37.307Z,62.96
2022-09-05T06:47:33.451Z,62.69
2022-09-05T06:50:26.964Z,62.83
2022-09-05T06:53:38.823Z,63.00
2022-09-05T06:56:46.522Z,62.84
2022-09-05T06:59:44.852Z,62.57
2022-09-05T07:02:59.065Z,62.37
2022-09-05T07:06:04.686Z,62.17
2022-09-05T07:09:15.941Z,62.40
2022-09-05T07:12:16.052Z,62.16
2022-09-05T07:15:13.842Z,61.97
2022-09-05T07:18:31.737Z,62.15
2022-09-05T07:21:35.673Z,61.96
2022-09-05T07:24:53.839Z,61.74
2022-09-05T07:27:58.752Z,61.88
2022-09-05T07:30:47.485Z,61.76
2022-09-05T07:36:28.070Z,61.81
2022-09-05T07:39:28.652Z,60.00
2022-09-05T07:42:19.783Z,61.58
2022-09-05T07:45:10.826Z,61.51
2022-09-05T07:48:08.697Z,61.27
2022-09-05T07:56:53.145Z,61.39
2022-09-05T07:56:53.914Z,61.18
2022-09-05T07:57:52.053Z,61.40
2022-09-05T08:00:39.052Z,61.38
2022-09-05T08:03:27.667Z,61.13
2022-09-05T08:07:14.379Z,61.03
2022-09-05T08:10:06.158Z,61.03
2022-09-05T08:13:22.906Z,60.36
2022-09-05T08:16:09.867Z,60.51
2022-09-05T08:19:18.698Z,60.73
2022-09-05T08:22:07.025Z,60.40
2022-09-05T08:25:13.590Z,60.32
2022-09-05T08:28:19.502Z,60.00
2022-09-05T08:31:11.296Z,60.13
2022-09-05T08:34:00.366Z,60.01
2022-09-05T08:36:50.010Z,59.70
2022-09-05T08:39:36.464Z,60.02
2022-09-05T08:42:25.674Z,59.98
2022-09-05T08:46:44.300Z,59.92
2022-09-05T08:49:11.559Z,59.48
2022-09-05T08:52:30.649Z,59.78
2022-09-05T08:55:45.936Z,59.67
2022-09-05T08:58:37.744Z,59.20
2022-09-05T09:01:26.768Z,59.18
2022-09-05T09:05:00.935Z,59.18
2022-09-05T09:07:51.119Z,58.78
2022-09-05T09:10:55.014Z,58.79
2022-09-05T09:14:07.133Z,58.67
2022-09-05T09:17:08.193Z,58.55
2022-09-05T09:20:09.731Z,55.67
2022-09-05T09:22:59.825Z,58.56
2022-09-05T09:25:58.714Z,58.64
2022-09-05T09:29:12.504Z,58.72
2022-09-05T09:32:11.731Z,58.36
2022-09-05T09:35:06.200Z,58.45
2022-09-05T09:38:11.093Z,58.47
2022-09-05T09:41:29.056Z,58.65
2022-09-05T09:45:22.583Z,58.74
2022-09-05T09:48:14.451Z,58.03
2022-09-05T09:51:18.794Z,57.76
2022-09-05T09:54:28.198Z,57.85
2022-09-05T09:57:33.263Z,57.81
2022-09-05T10:00:21.431Z,57.65
2022-09-05T10:07:47.917Z,57.40
2022-09-05T10:10:49.902Z,57.25
2022-09-05T10:10:58.386Z,57.57
2022-09-05T10:13:38.708Z,57.30
2022-09-05T10:16:43.431Z,57.27
2022-09-05T10:20:11.861Z,57.27
2022-09-05T10:23:16.620Z,57.38
2022-09-05T10:26:20.894Z,56.52
2022-09-05T10:29:36.845Z,56.40
2022-09-05T10:35:04.766Z,56.47
2022-09-05T10:36:17.394Z,52.84
2022-09-05T10:39:17.892Z,54.81
2022-09-05T10:42:03.800Z,56.29
2022-09-05T10:44:54.150Z,56.20
2022-09-05T10:48:12.961Z,56.33
2022-09-05T10:51:27.816Z,54.21
2022-09-05T10:54:21.126Z,56.02
2022-09-05T10:57:35.678Z,55.98
2022-09-05T11:02:28.291Z,56.21
2022-09-05T11:04:22.668Z,55.72
2022-09-05T11:07:15.637Z,55.83
2022-09-05T11:10:07.006Z,55.38
2022-09-05T11:13:16.280Z,55.35
2022-09-05T11:16:19.452Z,55.05
2022-09-05T11:19:35.038Z,54.77
2022-09-05T11:22:24.424Z,54.03
2022-09-05T11:25:21.172Z,52.06
2022-09-05T11:28:58.154Z,54.40
2022-09-05T11:34:18.218Z,53.96
2022-09-05T11:39:52.354Z,51.79
2022-09-05T11:40:04.006Z,54.00
2022-09-05T11:42:25.240Z,53.58
2022-09-05T11:45:37.318Z,53.71
2022-09-05T11:48:53.616Z,53.63
2022-09-05T11:52:01.349Z,53.02
2022-09-05T11:55:09.392Z,53.34
2022-09-05T11:58:45.334Z,52.85
2022-09-05T12:01:50.688Z,52.96
2022-09-05T12:05:47.327Z,52.69
2022-09-05T12:08:10.001Z,52.83
2022-09-05T12:11:10.602Z,52.82
2022-09-05T12:14:27.340Z,52.66
2022-09-05T12:17:58.430Z,52.28
2022-09-05T12:21:00.163Z,51.85
2022-09-05T12:24:00.033Z,51.50
2022-09-05T12:27:44.957Z,51.61
2022-09-05T12:30:23.113Z,51.78
2022-09-05T12:36:01.579Z,51.07
2022-09-05T12:40:53.800Z,50.97
2022-09-05T12:41:35.535Z,48.65
2022-09-05T12:43:57.452Z,50.09
2022-09-05T12:46:45.804Z,50.49
2022-09-05T12:49:37.197Z,50.21
2022-09-05T12:52:37.053Z,50.54
2022-09-05T12:55:28.106Z,46.16
2022-09-05T13:02:56.219Z,49.77
2022-09-05T13:03:05.820Z,49.74
2022-09-05T13:04:59.687Z,49.58
2022-09-05T13:07:52.888Z,49.02
2022-09-05T13:14:46.185Z,49.33
2022-09-05T13:15:06.136Z,49.00
2022-09-05T13:17:02.415Z,48.67
2022-09-05T13:19:51.781Z,48.72
2022-09-05T13:22:48.646Z,48.54
2022-09-05T13:25:36.193Z,48.15
2022-09-05T13:28:25.226Z,47.35
2022-09-05T13:37:55.740Z,47.62
2022-09-05T13:38:12.700Z,47.60
2022-09-05T13:38:20.929Z,47.51
2022-09-05T13:40:44.367Z,47.37
2022-09-05T13:43:37.429Z,47.30
2022-09-05T13:47:10.575Z,47.27
2022-09-05T13:50:23.205Z,47.05
2022-09-05T13:53:43.969Z,44.58
2022-09-05T13:56:33.037Z,46.51
2022-09-05T13:59:20.902Z,46.62
2022-09-05T14:02:27.673Z,46.59
2022-09-05T14:05:35.884Z,46.37
2022-09-05T14:09:35.045Z,46.94
2022-09-05T14:12:08.308Z,46.52
2022-09-05T14:15:13.768Z,46.26
2022-09-05T14:18:21.462Z,46.62
2022-09-05T14:21:15.856Z,46.28
2022-09-05T14:24:21.966Z,45.86
2022-09-05T14:27:18.674Z,46.25
2022-09-05T14:35:23.467Z,46.40
2022-09-05T14:37:51.085Z,46.24
2022-09-05T14:38:05.798Z,45.98
2022-09-05T14:41:15.497Z,45.89
2022-09-05T14:44:41.581Z,45.61
2022-09-05T14:47:54.018Z,45.49
2022-09-05T14:50:49.486Z,45.51
2022-09-05T14:54:01.847Z,44.47
2022-09-05T14:59:43.421Z,45.62
2022-09-05T15:02:45.892Z,45.09
2022-09-05T15:03:09.130Z,44.69
2022-09-05T15:05:55.911Z,44.67
2022-09-05T15:11:24.362Z,44.01
2022-09-05T15:12:26.282Z,43.77
2022-09-05T15:15:18.234Z,44.09
2022-09-05T15:18:08.313Z,43.56
2022-09-05T15:21:33.166Z,43.21
2022-09-05T15:27:32.191Z,42.96
2022-09-05T15:30:27.565Z,42.34
2022-09-05T15:33:25.728Z,42.61
2022-09-05T15:36:14.615Z,42.38
2022-09-05T15:39:20.427Z,36.88
2022-09-05T15:42:21.562Z,38.31
2022-09-05T15:45:11.888Z,41.99
2022-09-05T15:48:16.766Z,41.76
2022-09-05T15:51:17.138Z,37.81
2022-09-05T15:54:06.331Z,41.59
2022-09-05T15:56:59.596Z,41.21
2022-09-05T15:59:49.916Z,41.21
2022-09-05T16:03:01.007Z,41.22
2022-09-05T16:10:37.466Z,41.42
2022-09-05T16:10:42.034Z,40.97
2022-09-05T16:12:46.589Z,41.24
2022-09-05T16:19:30.768Z,41.00
2022-09-05T16:23:23.496Z,41.03
2022-09-05T16:23:23.496Z,41.10
2022-09-05T16:25:22.727Z,41.11
2022-09-05T16:28:14.722Z,40.90
2022-09-05T16:31:29.901Z,41.26
2022-09-05T16:34:54.664Z,40.71
2022-09-05T16:38:09.073Z,40.65
2022-09-05T16:41:02.079Z,40.61
2022-09-05T16:43:57.464Z,40.79
2022-09-05T16:47:23.196Z,41.00
2022-09-05T16:50:16.735Z,40.79
2022-09-05T16:53:09.949Z,40.79
2022-09-05T16:56:16.468Z,40.80
2022-09-05T16:59:08.318Z,41.10
2022-09-05T17:02:27.498Z,41.11
2022-09-05T17:05:19.675Z,41.01
2022-09-05T17:08:20.905Z,41.12
2022-09-05T17:11:13.750Z,41.38
2022-09-05T17:14:20.430Z,41.45
2022-09-05T17:17:35.983Z,41.78
2022-09-05T17:20:22.117Z,41.56
2022-09-05T17:29:18.294Z,41.67
2022-09-05T17:29:32.179Z,41.63
2022-09-05T17:32:59.743Z,42.07
2022-09-05T17:35:48.491Z,41.83
2022-09-05T17:39:23.037Z,41.86
2022-09-05T17:42:41.328Z,42.03
2022-09-05T17:46:09.698Z,42.14
2022-09-05T17:49:17.989Z,43.27
2022-09-05T17:52:04.237Z,48.14
2022-09-05T17:54:52.565Z,46.91
2022-09-05T17:57:40.025Z,44.36
2022-09-05T18:00:48.832Z,44.37
2022-09-05T18:03:38.611Z,44.00
2022-09-05T18:06:32.849Z,43.91
2022-09-05T18:13:32.293Z,44.03
2022-09-05T18:16:42.054Z,44.23
2022-09-05T18:19:41.984Z,43.91
2022-09-05T18:22:38.640Z,44.14
2022-09-05T18:28:49.281Z,44.02
2022-09-05T18:31:41.303Z,44.02
2022-09-05T18:34:32.065Z,44.14
2022-09-05T18:37:36.965Z,44.19
2022-09-05T18:40:47.940Z,44.28
2022-09-05T18:44:12.448Z,44.29
2022-09-05T18:46:57.525Z,44.70
2022-09-05T18:50:25.014Z,44.85
2022-09-05T18:53:09.107Z,44.85
2022-09-05T18:56:13.363Z,44.92
2022-09-05T18:59:18.220Z,45.22
2022-09-05T19:02:28.714Z,45.02
2022-09-05T19:05:38.442Z,45.34
2022-09-05T19:08:31.863Z,45.51
2022-09-05T19:11:29.150Z,45.63
2022-09-05T19:14:50.256Z,45.54
2022-09-05T19:17:40.255Z,45.71
2022-09-05T19:21:11.947Z,45.56
2022-09-05T19:24:02.999Z,45.58
2022-09-05T19:26:56.869Z,45.85
2022-09-05T19:36:46.281Z,45.81
2022-09-05T19:37:09.603Z,46.37
2022-09-05T19:37:14.276Z,46.06
2022-09-05T19:41:24.353Z,45.99
2022-09-05T19:47:28.004Z,46.27
2022-09-05T19:47:37.698Z,46.16
2022-09-05T19:49:13.646Z,46.58
2022-09-05T19:52:15.269Z,46.68
2022-09-05T19:55:02.509Z,46.41
2022-09-05T19:58:29.186Z,46.83
2022-09-05T20:01:04.590Z,47.00
2022-09-05T20:03:53.508Z,46.98
2022-09-05T20:06:41.954Z,47.02
2022-09-05T20:09:28.343Z,46.86
2022-09-05T20:12:24.486Z,46.82
2022-09-05T20:15:36.124Z,47.17
2022-09-05T20:18:28.295Z,46.93
2022-09-05T20:21:26.165Z,47.25
2022-09-05T20:24:12.695Z,47.23
2022-09-05T20:27:00.154Z,47.09
2022-09-05T20:30:00.410Z,47.53
2022-09-05T20:32:52.547Z,47.50
2022-09-05T20:37:51.629Z,47.40
2022-09-05T20:43:18.296Z,47.40
2022-09-05T20:43:23.235Z,47.37
2022-09-05T20:45:07.957Z,47.33
2022-09-05T20:52:34.921Z,47.64
2022-09-05T20:54:22.574Z,47.66
2022-09-05T20:54:32.276Z,47.73
2022-09-05T20:57:18.152Z,47.85
2022-09-05T21:00:20.185Z,48.20
2022-09-05T21:03:09.041Z,48.18
2022-09-05T21:05:55.881Z,48.02
2022-09-05T21:08:42.389Z,48.20
2022-09-05T21:11:30.836Z,48.44
2022-09-05T21:14:23.067Z,48.39
2022-09-05T21:17:15.590Z,48.24
2022-09-05T21:20:08.707Z,48.60
2022-09-05T21:22:54.898Z,48.61
2022-09-05T21:26:00.319Z,49.01
2022-09-05T21:29:09.109Z,48.98
2022-09-05T21:32:00.006Z,48.81
2022-09-05T21:34:52.160Z,48.99
2022-09-05T21:37:41.253Z,49.06
2022-09-05T21:40:27.660Z,49.06
2022-09-05T21:47:12.898Z,49.23
2022-09-05T21:47:38.390Z,49.21
2022-09-05T21:49:26.679Z,49.26
2022-09-05T21:52:13.147Z,49.28
2022-09-05T21:59:15.336Z,48.87
2022-09-05T21:59:25.915Z,49.39
2022-09-05T22:01:13.676Z,49.60
2022-09-05T22:03:59.762Z,49.50
2022-09-05T22:06:48.520Z,49.79
2022-09-05T22:09:34.713Z,49.80
2022-09-05T22:12:30.680Z,49.79
2022-09-05T22:15:27.839Z,49.68
2022-09-05T22:18:17.787Z,49.71
2022-09-05T22:21:33.406Z,50.04
2022-09-05T22:24:13.266Z,49.96
2022-09-05T22:27:12.626Z,50.17
2022-09-05T22:29:59.232Z,50.14
2022-09-05T22:32:45.192Z,50.19
2022-09-05T22:35:35.370Z,50.29
2022-09-05T22:38:21.662Z,50.47
2022-09-05T22:41:07.798Z,50.41
2022-09-05T22:43:53.797Z,50.42
2022-09-05T22:46:39.839Z,50.68
2022-09-05T22:49:25.848Z,50.58
2022-09-05T22:52:11.687Z,50.79
2022-09-05T22:54:57.862Z,50.98
2022-09-05T22:57:43.774Z,50.88
2022-09-05T23:00:29.954Z,50.87
2022-09-05T23:03:16.459Z,50.74
2022-09-05T23:06:09.232Z,51.13
2022-09-05T23:08:55.063Z,51.05
2022-09-05T23:11:40.916Z,51.00
2022-09-05T23:14:26.907Z,51.04
2022-09-05T23:17:16.069Z,51.12
2022-09-05T23:20:02.705Z,51.16
2022-09-05T23:22:48.700Z,50.87
2022-09-05T23:25:35.812Z,51.26
2022-09-05T23:28:21.959Z,51.41
2022-09-05T23:31:09.206Z,51.27
2022-09-05T23:33:58.105Z,51.42
2022-09-05T23:36:44.168Z,51.58
2022-09-05T23:39:30.175Z,51.39
2022-09-05T23:42:16.355Z,51.37
2022-09-05T23:45:02.259Z,51.37
2022-09-05T23:47:48.383Z,51.74
2022-09-05T23:50:34.466Z,51.65
2022-09-05T23:53:20.454Z,51.72
2022-09-05T23:56:08.363Z,51.69
2022-09-05T23:58:54.403Z,51.63
